Kostanay West Airport
UAUU : now visible

Airfield :











YOU CAN JOIN US ON...

 
LOGIN :

Register | Disclaimer

   EN    FR    IT 

 









Legend :    VFR   Marginal VFR   IFR   Intensive IFR   Very Intensive IFR
Visi :
Ceiling :
>= 8 km
>= 3000ft
5 to 8 km
1000 to 3000 ft
1500m to 5 km
500 to 1000 ft
800 to 1500m
200 to 500 ft
< 800m
< 200 ft
Symbols :   Thunderstorms  Fog  Heavy snow  Heavy precipitations  Wind > 20 kt






- Airport Elevation : 595 ft
- IATA code : KSN


UAUU - Kostanay West

CURRENT METAR :
  • 090100Z 19002MPS CAVOK M13/M14 Q1018 NOSIG RMK QFE748/0997

EXPIRED METARs :
  • 090030Z 18002MPS CAVOK M13/M15 Q1018 NOSIG RMK QFE748/0997
  • 090000Z 20002MPS CAVOK M13/M14 Q1018 NOSIG RMK QFE748/0997
  • 082330Z 18002MPS CAVOK M13/M14 Q1017 NOSIG RMK QFE747/0997
  • 082300Z 19002MPS CAVOK M13/M14 Q1017 NOSIG RMK QFE747/0996

TAF TAF UAUU
Valid from the 09 at 00:00 until the 09 at 09:00 UTC


082300Z 0900/0909 21005MPS 6000 BKN020
TEMPO 0900/0905 0400 FZFG VV002



MET'MAP, your aeronautical weather chart ! - Copyright ORBIFLY December 2007 - Disclaimer

ORBIFLY MET'MAP TEAM :

Programming & Development : Alexandra Zaïnal
Concept & original design : Baudouin d'Aumeries
Assistance for programming : Marc-Olivier Méhu
Technical & hardware support : Manuel Goepfert

Contact : metmap@orbifly.com




SOURCES & CREDITS :

   NOAA       Earth
Advisory